sensor_id;sensor_type;location;lat;lon;timestamp;P1;durP1;ratioP1;P2;durP2;ratioP2
79702;SDS011;69172;52.352;5.006;2024-03-29T00:02:22;4.28;;;0.95;;
79702;SDS011;69172;52.352;5.006;2024-03-29T00:04:50;3.45;;;0.73;;
79702;SDS011;69172;52.352;5.006;2024-03-29T00:07:15;6.35;;;0.82;;
79702;SDS011;69172;52.352;5.006;2024-03-29T00:09:41;7.20;;;1.60;;
79702;SDS011;69172;52.352;5.006;2024-03-29T00:12:06;6.85;;;1.05;;
79702;SDS011;69172;52.352;5.006;2024-03-29T00:14:33;6.32;;;0.85;;
79702;SDS011;69172;52.352;5.006;2024-03-29T00:16:58;3.55;;;0.82;;
79702;SDS011;69172;52.352;5.006;2024-03-29T00:19:23;4.88;;;0.98;;
79702;SDS011;69172;52.352;5.006;2024-03-29T00:21:49;6.28;;;1.70;;
79702;SDS011;69172;52.352;5.006;2024-03-29T00:24:14;5.63;;;1.48;;
79702;SDS011;69172;52.352;5.006;2024-03-29T00:26:40;5.05;;;0.95;;
79702;SDS011;69172;52.352;5.006;2024-03-29T00:29:05;4.53;;;0.90;;
79702;SDS011;69172;52.352;5.006;2024-03-29T00:31:30;6.57;;;0.90;;
79702;SDS011;69172;52.352;5.006;2024-03-29T00:33:57;3.72;;;1.02;;
79702;SDS011;69172;52.352;5.006;2024-03-29T00:36:22;10.38;;;1.15;;
79702;SDS011;69172;52.352;5.006;2024-03-29T00:38:47;5.63;;;1.10;;
79702;SDS011;69172;52.352;5.006;2024-03-29T00:41:12;5.05;;;0.95;;
79702;SDS011;69172;52.352;5.006;2024-03-29T00:43:38;6.53;;;1.15;;
79702;SDS011;69172;52.352;5.006;2024-03-29T00:46:03;5.47;;;0.90;;
79702;SDS011;69172;52.352;5.006;2024-03-29T00:48:28;3.05;;;0.75;;
79702;SDS011;69172;52.352;5.006;2024-03-29T00:50:54;5.68;;;0.95;;
79702;SDS011;69172;52.352;5.006;2024-03-29T00:53:20;6.18;;;1.13;;
79702;SDS011;69172;52.352;5.006;2024-03-29T00:55:45;6.45;;;1.05;;
79702;SDS011;69172;52.352;5.006;2024-03-29T00:58:10;7.35;;;1.40;;
79702;SDS011;69172;52.352;5.006;2024-03-29T01:00:36;4.65;;;1.27;;
79702;SDS011;69172;52.352;5.006;2024-03-29T01:03:01;7.32;;;1.10;;
79702;SDS011;69172;52.352;5.006;2024-03-29T01:05:27;4.13;;;0.98;;
79702;SDS011;69172;52.352;5.006;2024-03-29T01:07:52;5.30;;;0.93;;
79702;SDS011;69172;52.352;5.006;2024-03-29T01:10:19;5.15;;;1.13;;
79702;SDS011;69172;52.352;5.006;2024-03-29T01:12:47;8.10;;;1.10;;
79702;SDS011;69172;52.352;5.006;2024-03-29T01:15:12;5.45;;;1.05;;
79702;SDS011;69172;52.352;5.006;2024-03-29T01:17:37;6.43;;;0.88;;
79702;SDS011;69172;52.352;5.006;2024-03-29T01:20:04;6.57;;;0.95;;
79702;SDS011;69172;52.352;5.006;2024-03-29T01:22:29;4.13;;;0.70;;
79702;SDS011;69172;52.352;5.006;2024-03-29T01:24:55;4.22;;;1.25;;
79702;SDS011;69172;52.352;5.006;2024-03-29T01:27:20;5.10;;;0.95;;
79702;SDS011;69172;52.352;5.006;2024-03-29T01:29:46;7.03;;;0.93;;
79702;SDS011;69172;52.352;5.006;2024-03-29T01:32:11;5.93;;;1.55;;
79702;SDS011;69172;52.352;5.006;2024-03-29T01:34:37;7.07;;;1.50;;
79702;SDS011;69172;52.352;5.006;2024-03-29T01:37:02;4.43;;;1.08;;
79702;SDS011;69172;52.352;5.006;2024-03-29T01:39:27;8.40;;;1.27;;
79702;SDS011;69172;52.352;5.006;2024-03-29T01:41:56;4.20;;;0.98;;
79702;SDS011;69172;52.352;5.006;2024-03-29T01:44:21;6.10;;;1.05;;
79702;SDS011;69172;52.352;5.006;2024-03-29T01:46:47;5.22;;;1.55;;
79702;SDS011;69172;52.352;5.006;2024-03-29T01:49:12;5.38;;;0.90;;
79702;SDS011;69172;52.352;5.006;2024-03-29T01:51:39;6.63;;;1.10;;
79702;SDS011;69172;52.352;5.006;2024-03-29T01:54:07;5.25;;;0.95;;
79702;SDS011;69172;52.352;5.006;2024-03-29T01:56:35;9.77;;;1.00;;
79702;SDS011;69172;52.352;5.006;2024-03-29T01:59:01;4.75;;;0.90;;
79702;SDS011;69172;52.352;5.006;2024-03-29T02:01:29;6.15;;;0.77;;
79702;SDS011;69172;52.352;5.006;2024-03-29T02:03:55;3.22;;;1.05;;
79702;SDS011;69172;52.352;5.006;2024-03-29T02:06:21;5.32;;;1.00;;
79702;SDS011;69172;52.352;5.006;2024-03-29T02:08:49;6.30;;;1.73;;
79702;SDS011;69172;52.352;5.006;2024-03-29T02:11:16;6.03;;;0.90;;
79702;SDS011;69172;52.352;5.006;2024-03-29T02:13:43;4.13;;;1.00;;
79702;SDS011;69172;52.352;5.006;2024-03-29T02:16:09;9.20;;;1.30;;
79702;SDS011;69172;52.352;5.006;2024-03-29T02:18:35;6.07;;;1.02;;
79702;SDS011;69172;52.352;5.006;2024-03-29T02:21:00;6.93;;;1.00;;
79702;SDS011;69172;52.352;5.006;2024-03-29T02:23:27;8.98;;;1.13;;
79702;SDS011;69172;52.352;5.006;2024-03-29T02:25:54;6.68;;;0.82;;
79702;SDS011;69172;52.352;5.006;2024-03-29T02:28:28;4.78;;;0.85;;
79702;SDS011;69172;52.352;5.006;2024-03-29T02:30:55;4.22;;;0.95;;
79702;SDS011;69172;52.352;5.006;2024-03-29T02:33:20;3.95;;;0.82;;
79702;SDS011;69172;52.352;5.006;2024-03-29T02:35:46;1.67;;;0.43;;
79702;SDS011;69172;52.352;5.006;2024-03-29T02:38:12;7.03;;;1.00;;
79702;SDS011;69172;52.352;5.006;2024-03-29T02:40:37;4.38;;;0.88;;
79702;SDS011;69172;52.352;5.006;2024-03-29T02:43:02;5.18;;;1.00;;
79702;SDS011;69172;52.352;5.006;2024-03-29T02:45:28;4.07;;;0.70;;
79702;SDS011;69172;52.352;5.006;2024-03-29T02:47:53;7.22;;;1.10;;
79702;SDS011;69172;52.352;5.006;2024-03-29T02:50:37;5.88;;;1.35;;
79702;SDS011;69172;52.352;5.006;2024-03-29T02:53:08;4.35;;;0.75;;
79702;SDS011;69172;52.352;5.006;2024-03-29T02:55:34;4.88;;;0.77;;
79702;SDS011;69172;52.352;5.006;2024-03-29T02:57:59;4.88;;;0.85;;
79702;SDS011;69172;52.352;5.006;2024-03-29T03:00:24;10.30;;;1.75;;
79702;SDS011;69172;52.352;5.006;2024-03-29T03:02:50;6.38;;;0.90;;
79702;SDS011;69172;52.352;5.006;2024-03-29T03:05:16;4.88;;;0.60;;
79702;SDS011;69172;52.352;5.006;2024-03-29T03:07:42;5.65;;;0.85;;
79702;SDS011;69172;52.352;5.006;2024-03-29T03:10:25;5.60;;;0.82;;
79702;SDS011;69172;52.352;5.006;2024-03-29T03:13:09;6.03;;;1.10;;
79702;SDS011;69172;52.352;5.006;2024-03-29T03:15:34;6.25;;;1.38;;
79702;SDS011;69172;52.352;5.006;2024-03-29T03:17:59;3.45;;;1.00;;
79702;SDS011;69172;52.352;5.006;2024-03-29T03:20:25;5.95;;;0.98;;
79702;SDS011;69172;52.352;5.006;2024-03-29T03:22:55;10.23;;;0.90;;
79702;SDS011;69172;52.352;5.006;2024-03-29T03:25:22;4.07;;;0.70;;
79702;SDS011;69172;52.352;5.006;2024-03-29T03:27:47;4.38;;;0.90;;
79702;SDS011;69172;52.352;5.006;2024-03-29T03:30:14;5.05;;;1.15;;
79702;SDS011;69172;52.352;5.006;2024-03-29T03:32:40;5.53;;;0.80;;
79702;SDS011;69172;52.352;5.006;2024-03-29T03:35:05;9.43;;;1.27;;
79702;SDS011;69172;52.352;5.006;2024-03-29T03:37:32;6.72;;;1.00;;
79702;SDS011;69172;52.352;5.006;2024-03-29T03:39:57;4.50;;;1.80;;
79702;SDS011;69172;52.352;5.006;2024-03-29T03:42:22;4.38;;;0.95;;
79702;SDS011;69172;52.352;5.006;2024-03-29T03:44:48;4.90;;;0.90;;
79702;SDS011;69172;52.352;5.006;2024-03-29T03:47:19;6.30;;;1.10;;
79702;SDS011;69172;52.352;5.006;2024-03-29T03:49:44;6.45;;;1.08;;
79702;SDS011;69172;52.352;5.006;2024-03-29T03:52:10;3.72;;;0.85;;
79702;SDS011;69172;52.352;5.006;2024-03-29T03:54:35;7.65;;;1.13;;
79702;SDS011;69172;52.352;5.006;2024-03-29T03:57:01;4.50;;;1.00;;
79702;SDS011;69172;52.352;5.006;2024-03-29T03:59:27;5.68;;;0.95;;
79702;SDS011;69172;52.352;5.006;2024-03-29T04:01:54;4.45;;;0.93;;
79702;SDS011;69172;52.352;5.006;2024-03-29T04:04:20;2.42;;;0.70;;
79702;SDS011;69172;52.352;5.006;2024-03-29T04:06:46;6.07;;;1.10;;
79702;SDS011;69172;52.352;5.006;2024-03-29T04:09:14;3.47;;;0.90;;
79702;SDS011;69172;52.352;5.006;2024-03-29T04:11:41;4.97;;;0.90;;
79702;SDS011;69172;52.352;5.006;2024-03-29T04:14:07;8.90;;;0.90;;
79702;SDS011;69172;52.352;5.006;2024-03-29T04:16:32;7.35;;;1.00;;
79702;SDS011;69172;52.352;5.006;2024-03-29T04:18:59;4.05;;;0.65;;
79702;SDS011;69172;52.352;5.006;2024-03-29T04:21:25;4.20;;;0.70;;
79702;SDS011;69172;52.352;5.006;2024-03-29T04:23:50;2.08;;;0.57;;
79702;SDS011;69172;52.352;5.006;2024-03-29T04:26:15;5.65;;;0.98;;
79702;SDS011;69172;52.352;5.006;2024-03-29T04:28:41;2.42;;;0.57;;
79702;SDS011;69172;52.352;5.006;2024-03-29T04:31:06;5.30;;;1.48;;
79702;SDS011;69172;52.352;5.006;2024-03-29T04:33:32;5.30;;;0.90;;
79702;SDS011;69172;52.352;5.006;2024-03-29T04:35:59;6.35;;;1.00;;
79702;SDS011;69172;52.352;5.006;2024-03-29T04:38:26;5.55;;;1.00;;
79702;SDS011;69172;52.352;5.006;2024-03-29T04:40:53;6.22;;;0.80;;
79702;SDS011;69172;52.352;5.006;2024-03-29T04:43:27;5.75;;;0.65;;
79702;SDS011;69172;52.352;5.006;2024-03-29T04:46:03;4.80;;;0.77;;
79702;SDS011;69172;52.352;5.006;2024-03-29T04:48:31;4.70;;;0.73;;
79702;SDS011;69172;52.352;5.006;2024-03-29T04:50:57;4.15;;;0.80;;
79702;SDS011;69172;52.352;5.006;2024-03-29T04:53:22;5.68;;;0.98;;
79702;SDS011;69172;52.352;5.006;2024-03-29T04:55:53;5.53;;;0.85;;
79702;SDS011;69172;52.352;5.006;2024-03-29T04:58:19;4.55;;;0.70;;
79702;SDS011;69172;52.352;5.006;2024-03-29T05:00:47;6.70;;;0.75;;
79702;SDS011;69172;52.352;5.006;2024-03-29T05:03:14;4.82;;;0.63;;
79702;SDS011;69172;52.352;5.006;2024-03-29T05:05:48;4.18;;;0.70;;
79702;SDS011;69172;52.352;5.006;2024-03-29T05:08:15;3.42;;;0.57;;
79702;SDS011;69172;52.352;5.006;2024-03-29T05:10:40;4.65;;;1.00;;
79702;SDS011;69172;52.352;5.006;2024-03-29T05:13:06;1.33;;;0.50;;
79702;SDS011;69172;52.352;5.006;2024-03-29T05:15:32;3.08;;;0.60;;
79702;SDS011;69172;52.352;5.006;2024-03-29T05:17:57;4.95;;;0.63;;
79702;SDS011;69172;52.352;5.006;2024-03-29T05:20:23;5.50;;;1.35;;
79702;SDS011;69172;52.352;5.006;2024-03-29T05:22:48;3.45;;;0.50;;
79702;SDS011;69172;52.352;5.006;2024-03-29T05:25:13;4.00;;;0.90;;
79702;SDS011;69172;52.352;5.006;2024-03-29T05:27:39;3.08;;;0.60;;
79702;SDS011;69172;52.352;5.006;2024-03-29T05:30:05;1.98;;;0.50;;
79702;SDS011;69172;52.352;5.006;2024-03-29T05:32:33;2.80;;;0.50;;
79702;SDS011;69172;52.352;5.006;2024-03-29T05:35:00;1.23;;;0.40;;
79702;SDS011;69172;52.352;5.006;2024-03-29T05:40:30;4.43;;;0.50;;
79702;SDS011;69172;52.352;5.006;2024-03-29T05:45:46;3.20;;;0.52;;
79702;SDS011;69172;52.352;5.006;2024-03-29T05:48:12;2.22;;;0.30;;
79702;SDS011;69172;52.352;5.006;2024-03-29T05:50:37;2.50;;;0.40;;
79702;SDS011;69172;52.352;5.006;2024-03-29T05:53:02;1.60;;;0.30;;
79702;SDS011;69172;52.352;5.006;2024-03-29T05:55:29;1.13;;;0.35;;
79702;SDS011;69172;52.352;5.006;2024-03-29T05:57:54;2.97;;;0.40;;
79702;SDS011;69172;52.352;5.006;2024-03-29T06:00:19;2.13;;;0.40;;
79702;SDS011;69172;52.352;5.006;2024-03-29T06:02:45;1.65;;;0.30;;
79702;SDS011;69172;52.352;5.006;2024-03-29T06:05:10;0.57;;;0.30;;
79702;SDS011;69172;52.352;5.006;2024-03-29T06:07:36;2.33;;;0.38;;
79702;SDS011;69172;52.352;5.006;2024-03-29T06:10:02;1.10;;;0.25;;
79702;SDS011;69172;52.352;5.006;2024-03-29T06:12:33;3.90;;;0.70;;
79702;SDS011;69172;52.352;5.006;2024-03-29T06:15:00;2.17;;;0.45;;
79702;SDS011;69172;52.352;5.006;2024-03-29T06:17:44;2.13;;;0.40;;
79702;SDS011;69172;52.352;5.006;2024-03-29T06:20:10;1.33;;;0.45;;
79702;SDS011;69172;52.352;5.006;2024-03-29T06:22:36;2.85;;;0.50;;
79702;SDS011;69172;52.352;5.006;2024-03-29T06:25:16;1.75;;;0.20;;
79702;SDS011;69172;52.352;5.006;2024-03-29T06:27:42;1.05;;;0.30;;
79702;SDS011;69172;52.352;5.006;2024-03-29T06:30:12;0.70;;;0.28;;
79702;SDS011;69172;52.352;5.006;2024-03-29T06:32:38;4.20;;;0.60;;
79702;SDS011;69172;52.352;5.006;2024-03-29T06:35:03;6.50;;;0.90;;
79702;SDS011;69172;52.352;5.006;2024-03-29T06:37:29;4.70;;;0.60;;
79702;SDS011;69172;52.352;5.006;2024-03-29T06:39:54;2.47;;;0.50;;
79702;SDS011;69172;52.352;5.006;2024-03-29T06:42:21;1.33;;;0.35;;
79702;SDS011;69172;52.352;5.006;2024-03-29T06:44:48;1.13;;;0.40;;
79702;SDS011;69172;52.352;5.006;2024-03-29T06:47:13;3.22;;;0.55;;
79702;SDS011;69172;52.352;5.006;2024-03-29T06:49:39;1.77;;;0.60;;
79702;SDS011;69172;52.352;5.006;2024-03-29T06:52:05;1.77;;;0.45;;
79702;SDS011;69172;52.352;5.006;2024-03-29T06:54:30;4.07;;;0.50;;
79702;SDS011;69172;52.352;5.006;2024-03-29T06:56:57;2.25;;;0.55;;
79702;SDS011;69172;52.352;5.006;2024-03-29T06:59:23;1.70;;;0.52;;
79702;SDS011;69172;52.352;5.006;2024-03-29T07:01:49;3.85;;;0.50;;
79702;SDS011;69172;52.352;5.006;2024-03-29T07:04:19;1.80;;;0.60;;
79702;SDS011;69172;52.352;5.006;2024-03-29T07:06:45;3.15;;;0.75;;
79702;SDS011;69172;52.352;5.006;2024-03-29T07:09:13;1.55;;;0.35;;
79702;SDS011;69172;52.352;5.006;2024-03-29T07:11:39;3.80;;;0.60;;
79702;SDS011;69172;52.352;5.006;2024-03-29T07:14:06;2.97;;;0.70;;
79702;SDS011;69172;52.352;5.006;2024-03-29T07:16:31;3.90;;;0.50;;
79702;SDS011;69172;52.352;5.006;2024-03-29T07:18:57;1.10;;;0.50;;
79702;SDS011;69172;52.352;5.006;2024-03-29T07:21:23;3.70;;;0.60;;
79702;SDS011;69172;52.352;5.006;2024-03-29T07:23:49;4.05;;;0.50;;
79702;SDS011;69172;52.352;5.006;2024-03-29T07:26:14;1.83;;;0.70;;
79702;SDS011;69172;52.352;5.006;2024-03-29T07:28:39;3.20;;;0.60;;
79702;SDS011;69172;52.352;5.006;2024-03-29T07:31:05;3.40;;;0.50;;
79702;SDS011;69172;52.352;5.006;2024-03-29T07:33:35;3.33;;;0.52;;
79702;SDS011;69172;52.352;5.006;2024-03-29T07:36:01;1.90;;;0.65;;
79702;SDS011;69172;52.352;5.006;2024-03-29T07:38:28;4.05;;;0.77;;
79702;SDS011;69172;52.352;5.006;2024-03-29T07:43:39;1.58;;;0.35;;
79702;SDS011;69172;52.352;5.006;2024-03-29T07:46:05;3.95;;;0.60;;
79702;SDS011;69172;52.352;5.006;2024-03-29T07:48:33;1.17;;;0.50;;
79702;SDS011;69172;52.352;5.006;2024-03-29T07:50:59;2.75;;;0.70;;
79702;SDS011;69172;52.352;5.006;2024-03-29T07:53:25;2.15;;;0.40;;
79702;SDS011;69172;52.352;5.006;2024-03-29T07:55:50;1.77;;;0.30;;
79702;SDS011;69172;52.352;5.006;2024-03-29T07:58:15;4.50;;;0.60;;
79702;SDS011;69172;52.352;5.006;2024-03-29T08:00:42;3.97;;;0.60;;
79702;SDS011;69172;52.352;5.006;2024-03-29T08:03:07;2.83;;;0.63;;
79702;SDS011;69172;52.352;5.006;2024-03-29T08:05:33;3.38;;;0.70;;
79702;SDS011;69172;52.352;5.006;2024-03-29T08:07:59;4.15;;;0.80;;
79702;SDS011;69172;52.352;5.006;2024-03-29T08:10:24;2.85;;;0.80;;
79702;SDS011;69172;52.352;5.006;2024-03-29T08:12:50;1.60;;;0.50;;
79702;SDS011;69172;52.352;5.006;2024-03-29T08:15:15;2.95;;;0.60;;
79702;SDS011;69172;52.352;5.006;2024-03-29T08:17:43;2.92;;;0.50;;
79702;SDS011;69172;52.352;5.006;2024-03-29T08:20:09;1.20;;;0.45;;
79702;SDS011;69172;52.352;5.006;2024-03-29T08:22:34;1.67;;;0.43;;
79702;SDS011;69172;52.352;5.006;2024-03-29T08:25:00;0.97;;;0.23;;
79702;SDS011;69172;52.352;5.006;2024-03-29T08:27:26;1.33;;;0.47;;
79702;SDS011;69172;52.352;5.006;2024-03-29T08:29:52;3.28;;;0.77;;
79702;SDS011;69172;52.352;5.006;2024-03-29T08:32:18;0.45;;;0.32;;
79702;SDS011;69172;52.352;5.006;2024-03-29T08:34:43;1.00;;;0.30;;
79702;SDS011;69172;52.352;5.006;2024-03-29T08:37:09;1.38;;;0.40;;
79702;SDS011;69172;52.352;5.006;2024-03-29T08:39:34;1.15;;;0.52;;
79702;SDS011;69172;52.352;5.006;2024-03-29T08:42:00;0.68;;;0.25;;
79702;SDS011;69172;52.352;5.006;2024-03-29T08:44:34;0.60;;;0.30;;
79702;SDS011;69172;52.352;5.006;2024-03-29T08:47:00;2.55;;;0.50;;
79702;SDS011;69172;52.352;5.006;2024-03-29T08:49:27;2.97;;;0.50;;
79702;SDS011;69172;52.352;5.006;2024-03-29T08:51:52;3.90;;;0.45;;
79702;SDS011;69172;52.352;5.006;2024-03-29T08:54:19;3.47;;;0.75;;
79702;SDS011;69172;52.352;5.006;2024-03-29T08:56:44;2.78;;;0.60;;
79702;SDS011;69172;52.352;5.006;2024-03-29T08:59:10;2.70;;;0.60;;
79702;SDS011;69172;52.352;5.006;2024-03-29T09:01:41;0.80;;;0.55;;
79702;SDS011;69172;52.352;5.006;2024-03-29T09:04:10;0.85;;;0.57;;
79702;SDS011;69172;52.352;5.006;2024-03-29T09:06:40;0.75;;;0.45;;
79702;SDS011;69172;52.352;5.006;2024-03-29T09:09:05;1.73;;;0.63;;
79702;SDS011;69172;52.352;5.006;2024-03-29T09:11:32;3.35;;;0.68;;
79702;SDS011;69172;52.352;5.006;2024-03-29T09:13:58;3.22;;;0.60;;
79702;SDS011;69172;52.352;5.006;2024-03-29T09:16:27;2.50;;;0.50;;
79702;SDS011;69172;52.352;5.006;2024-03-29T09:18:56;0.73;;;0.40;;
79702;SDS011;69172;52.352;5.006;2024-03-29T09:21:22;1.73;;;0.75;;
79702;SDS011;69172;52.352;5.006;2024-03-29T09:23:48;1.13;;;0.68;;
79702;SDS011;69172;52.352;5.006;2024-03-29T09:26:15;3.15;;;0.65;;
79702;SDS011;69172;52.352;5.006;2024-03-29T09:28:41;2.33;;;0.63;;
79702;SDS011;69172;52.352;5.006;2024-03-29T09:31:06;1.92;;;0.47;;
79702;SDS011;69172;52.352;5.006;2024-03-29T09:33:32;1.27;;;0.40;;
79702;SDS011;69172;52.352;5.006;2024-03-29T09:35:57;3.78;;;0.57;;
79702;SDS011;69172;52.352;5.006;2024-03-29T09:38:24;2.08;;;0.52;;
79702;SDS011;69172;52.352;5.006;2024-03-29T09:40:55;1.25;;;0.68;;
79702;SDS011;69172;52.352;5.006;2024-03-29T09:43:35;2.20;;;0.70;;
79702;SDS011;69172;52.352;5.006;2024-03-29T09:46:01;1.73;;;0.55;;
79702;SDS011;69172;52.352;5.006;2024-03-29T09:48:28;1.85;;;0.77;;
79702;SDS011;69172;52.352;5.006;2024-03-29T09:51:01;2.42;;;0.85;;
79702;SDS011;69172;52.352;5.006;2024-03-29T09:53:29;2.08;;;1.02;;
79702;SDS011;69172;52.352;5.006;2024-03-29T09:55:54;3.92;;;0.70;;
79702;SDS011;69172;52.352;5.006;2024-03-29T09:58:20;3.05;;;0.47;;
79702;SDS011;69172;52.352;5.006;2024-03-29T10:00:45;1.15;;;0.55;;
79702;SDS011;69172;52.352;5.006;2024-03-29T10:03:10;1.55;;;0.60;;
79702;SDS011;69172;52.352;5.006;2024-03-29T10:05:36;1.65;;;0.90;;
79702;SDS011;69172;52.352;5.006;2024-03-29T10:08:04;3.90;;;0.80;;
79702;SDS011;69172;52.352;5.006;2024-03-29T10:10:32;1.77;;;0.80;;
79702;SDS011;69172;52.352;5.006;2024-03-29T10:12:58;1.73;;;0.90;;
79702;SDS011;69172;52.352;5.006;2024-03-29T10:15:24;1.90;;;0.82;;
79702;SDS011;69172;52.352;5.006;2024-03-29T10:17:52;2.20;;;0.85;;
79702;SDS011;69172;52.352;5.006;2024-03-29T10:20:18;3.35;;;1.40;;
79702;SDS011;69172;52.352;5.006;2024-03-29T10:22:44;1.67;;;0.70;;
79702;SDS011;69172;52.352;5.006;2024-03-29T10:25:11;0.95;;;0.50;;
79702;SDS011;69172;52.352;5.006;2024-03-29T10:27:38;1.48;;;0.50;;
79702;SDS011;69172;52.352;5.006;2024-03-29T10:30:06;1.60;;;0.50;;
79702;SDS011;69172;52.352;5.006;2024-03-29T10:38:03;3.60;;;0.90;;
79702;SDS011;69172;52.352;5.006;2024-03-29T10:40:29;1.95;;;0.70;;
79702;SDS011;69172;52.352;5.006;2024-03-29T10:43:09;2.28;;;0.70;;
79702;SDS011;69172;52.352;5.006;2024-03-29T10:45:40;3.95;;;0.88;;
79702;SDS011;69172;52.352;5.006;2024-03-29T10:48:05;3.35;;;1.20;;
79702;SDS011;69172;52.352;5.006;2024-03-29T10:50:35;5.28;;;1.15;;
79702;SDS011;69172;52.352;5.006;2024-03-29T10:53:06;2.55;;;1.17;;
79702;SDS011;69172;52.352;5.006;2024-03-29T10:55:34;4.03;;;1.20;;
79702;SDS011;69172;52.352;5.006;2024-03-29T10:58:03;4.30;;;1.50;;
79702;SDS011;69172;52.352;5.006;2024-03-29T11:00:32;3.50;;;1.42;;
79702;SDS011;69172;52.352;5.006;2024-03-29T11:06:00;5.65;;;1.75;;
79702;SDS011;69172;52.352;5.006;2024-03-29T11:08:28;5.75;;;1.55;;
79702;SDS011;69172;52.352;5.006;2024-03-29T11:10:59;4.13;;;1.38;;
79702;SDS011;69172;52.352;5.006;2024-03-29T11:13:40;4.07;;;1.15;;
79702;SDS011;69172;52.352;5.006;2024-03-29T11:16:12;3.20;;;1.13;;
79702;SDS011;69172;52.352;5.006;2024-03-29T11:18:42;2.40;;;1.23;;
79702;SDS011;69172;52.352;5.006;2024-03-29T11:21:08;4.63;;;1.60;;
79702;SDS011;69172;52.352;5.006;2024-03-29T11:23:36;4.93;;;1.90;;
79702;SDS011;69172;52.352;5.006;2024-03-29T11:26:01;5.07;;;1.73;;
79702;SDS011;69172;52.352;5.006;2024-03-29T11:28:31;6.45;;;2.30;;
79702;SDS011;69172;52.352;5.006;2024-03-29T11:31:07;6.45;;;2.55;;
79702;SDS011;69172;52.352;5.006;2024-03-29T11:36:15;5.68;;;2.85;;
79702;SDS011;69172;52.352;5.006;2024-03-29T11:38:45;6.03;;;2.85;;
79702;SDS011;69172;52.352;5.006;2024-03-29T11:41:20;6.53;;;2.22;;
79702;SDS011;69172;52.352;5.006;2024-03-29T11:43:48;5.18;;;2.03;;
79702;SDS011;69172;52.352;5.006;2024-03-29T11:46:14;4.28;;;1.83;;
79702;SDS011;69172;52.352;5.006;2024-03-29T11:48:41;2.97;;;1.35;;
79702;SDS011;69172;52.352;5.006;2024-03-29T11:51:07;4.40;;;1.80;;
79702;SDS011;69172;52.352;5.006;2024-03-29T11:53:36;4.63;;;1.83;;
79702;SDS011;69172;52.352;5.006;2024-03-29T11:56:02;5.35;;;1.83;;
79702;SDS011;69172;52.352;5.006;2024-03-29T11:58:29;3.90;;;1.70;;
79702;SDS011;69172;52.352;5.006;2024-03-29T12:00:58;3.67;;;1.45;;
79702;SDS011;69172;52.352;5.006;2024-03-29T12:03:27;4.25;;;1.98;;
79702;SDS011;69172;52.352;5.006;2024-03-29T12:05:54;3.13;;;1.80;;
79702;SDS011;69172;52.352;5.006;2024-03-29T12:08:27;5.78;;;1.95;;
79702;SDS011;69172;52.352;5.006;2024-03-29T12:10:55;4.75;;;2.20;;
79702;SDS011;69172;52.352;5.006;2024-03-29T12:13:20;4.95;;;2.33;;
79702;SDS011;69172;52.352;5.006;2024-03-29T12:15:45;8.00;;;2.25;;
79702;SDS011;69172;52.352;5.006;2024-03-29T12:18:11;6.57;;;2.15;;
79702;SDS011;69172;52.352;5.006;2024-03-29T12:20:38;6.13;;;2.00;;
79702;SDS011;69172;52.352;5.006;2024-03-29T12:23:04;4.50;;;2.13;;
79702;SDS011;69172;52.352;5.006;2024-03-29T12:25:37;6.50;;;2.20;;
79702;SDS011;69172;52.352;5.006;2024-03-29T12:28:03;2.88;;;1.40;;
79702;SDS011;69172;52.352;5.006;2024-03-29T12:30:29;3.75;;;1.80;;
79702;SDS011;69172;52.352;5.006;2024-03-29T12:33:05;4.15;;;1.75;;
79702;SDS011;69172;52.352;5.006;2024-03-29T12:35:32;4.00;;;2.17;;
79702;SDS011;69172;52.352;5.006;2024-03-29T12:38:04;4.82;;;1.65;;
79702;SDS011;69172;52.352;5.006;2024-03-29T12:40:32;4.60;;;1.85;;
79702;SDS011;69172;52.352;5.006;2024-03-29T12:43:02;3.92;;;1.48;;
79702;SDS011;69172;52.352;5.006;2024-03-29T12:45:33;3.90;;;1.60;;
79702;SDS011;69172;52.352;5.006;2024-03-29T12:48:02;4.13;;;1.52;;
79702;SDS011;69172;52.352;5.006;2024-03-29T12:50:28;4.28;;;1.40;;
79702;SDS011;69172;52.352;5.006;2024-03-29T12:52:59;3.63;;;1.40;;
79702;SDS011;69172;52.352;5.006;2024-03-29T12:55:27;4.93;;;1.73;;
79702;SDS011;69172;52.352;5.006;2024-03-29T12:57:55;7.20;;;2.00;;
79702;SDS011;69172;52.352;5.006;2024-03-29T13:00:21;3.38;;;1.40;;
79702;SDS011;69172;52.352;5.006;2024-03-29T13:02:47;3.50;;;1.30;;
79702;SDS011;69172;52.352;5.006;2024-03-29T13:05:13;6.20;;;1.35;;
79702;SDS011;69172;52.352;5.006;2024-03-29T13:07:38;3.58;;;1.27;;
79702;SDS011;69172;52.352;5.006;2024-03-29T13:10:04;4.07;;;1.30;;
79702;SDS011;69172;52.352;5.006;2024-03-29T13:12:42;4.63;;;1.10;;
79702;SDS011;69172;52.352;5.006;2024-03-29T13:15:18;6.45;;;1.70;;
79702;SDS011;69172;52.352;5.006;2024-03-29T13:17:45;4.30;;;1.27;;
79702;SDS011;69172;52.352;5.006;2024-03-29T13:20:11;4.55;;;1.52;;
79702;SDS011;69172;52.352;5.006;2024-03-29T13:22:37;3.83;;;1.25;;
79702;SDS011;69172;52.352;5.006;2024-03-29T13:25:03;8.90;;;3.72;;
79702;SDS011;69172;52.352;5.006;2024-03-29T13:27:30;2.17;;;0.93;;
79702;SDS011;69172;52.352;5.006;2024-03-29T13:29:55;2.60;;;0.93;;
79702;SDS011;69172;52.352;5.006;2024-03-29T13:32:21;9.77;;;4.10;;
79702;SDS011;69172;52.352;5.006;2024-03-29T13:34:46;4.90;;;1.60;;
79702;SDS011;69172;52.352;5.006;2024-03-29T13:37:11;5.32;;;1.52;;
79702;SDS011;69172;52.352;5.006;2024-03-29T13:39:37;4.05;;;1.40;;
79702;SDS011;69172;52.352;5.006;2024-03-29T13:42:02;6.32;;;2.33;;
79702;SDS011;69172;52.352;5.006;2024-03-29T13:44:28;5.32;;;1.65;;
79702;SDS011;69172;52.352;5.006;2024-03-29T13:46:53;4.53;;;1.50;;
79702;SDS011;69172;52.352;5.006;2024-03-29T13:49:18;4.18;;;1.65;;
79702;SDS011;69172;52.352;5.006;2024-03-29T13:51:47;5.38;;;1.40;;
79702;SDS011;69172;52.352;5.006;2024-03-29T13:54:12;3.65;;;1.60;;
79702;SDS011;69172;52.352;5.006;2024-03-29T13:56:38;4.35;;;1.45;;
79702;SDS011;69172;52.352;5.006;2024-03-29T13:59:03;3.20;;;1.40;;
79702;SDS011;69172;52.352;5.006;2024-03-29T14:01:29;5.32;;;1.60;;
79702;SDS011;69172;52.352;5.006;2024-03-29T14:03:56;4.72;;;1.52;;
79702;SDS011;69172;52.352;5.006;2024-03-29T14:06:21;6.60;;;1.90;;
79702;SDS011;69172;52.352;5.006;2024-03-29T14:08:47;4.53;;;2.08;;
79702;SDS011;69172;52.352;5.006;2024-03-29T14:11:14;5.47;;;1.90;;
79702;SDS011;69172;52.352;5.006;2024-03-29T14:13:39;2.92;;;1.60;;
79702;SDS011;69172;52.352;5.006;2024-03-29T14:16:05;4.35;;;1.60;;
79702;SDS011;69172;52.352;5.006;2024-03-29T14:18:30;4.85;;;1.70;;
79702;SDS011;69172;52.352;5.006;2024-03-29T14:20:58;3.15;;;1.58;;
79702;SDS011;69172;52.352;5.006;2024-03-29T14:23:24;4.47;;;1.65;;
79702;SDS011;69172;52.352;5.006;2024-03-29T14:25:50;4.05;;;1.95;;
79702;SDS011;69172;52.352;5.006;2024-03-29T14:28:16;6.25;;;2.35;;
79702;SDS011;69172;52.352;5.006;2024-03-29T14:30:41;3.95;;;1.35;;
79702;SDS011;69172;52.352;5.006;2024-03-29T14:33:07;4.75;;;1.35;;
79702;SDS011;69172;52.352;5.006;2024-03-29T14:35:34;5.88;;;1.30;;
79702;SDS011;69172;52.352;5.006;2024-03-29T14:38:00;3.90;;;1.55;;
79702;SDS011;69172;52.352;5.006;2024-03-29T14:40:25;3.80;;;1.08;;
79702;SDS011;69172;52.352;5.006;2024-03-29T14:42:54;5.78;;;1.35;;
79702;SDS011;69172;52.352;5.006;2024-03-29T14:45:21;3.78;;;1.42;;
79702;SDS011;69172;52.352;5.006;2024-03-29T14:47:46;1.95;;;0.90;;
79702;SDS011;69172;52.352;5.006;2024-03-29T14:50:12;5.70;;;1.23;;
79702;SDS011;69172;52.352;5.006;2024-03-29T14:52:37;3.88;;;1.38;;
79702;SDS011;69172;52.352;5.006;2024-03-29T14:55:03;6.47;;;1.88;;
79702;SDS011;69172;52.352;5.006;2024-03-29T14:57:29;6.35;;;1.63;;
79702;SDS011;69172;52.352;5.006;2024-03-29T14:59:55;4.72;;;1.70;;
79702;SDS011;69172;52.352;5.006;2024-03-29T15:02:22;8.00;;;1.95;;
79702;SDS011;69172;52.352;5.006;2024-03-29T15:04:47;6.45;;;2.20;;
79702;SDS011;69172;52.352;5.006;2024-03-29T15:07:13;9.20;;;2.40;;